Riccall, United Kingdom
Current Conditions -  °F | °C
As of 11:50 AM on Sunday 21 Dec 2014 (Local Time) from EGXU Reporting Station
Broken Clouds Broken Clouds  
Wind Chill: 42°   Ceiling: 4600
Heat Index: 48°   Visibility: 6mi
Dew Point: 48°   Wind: 18mph
Humidity: 100%   Direction: 220°SW
Pressure: 30.03"   Gusts: NA
Location:  53.83°N, 1.06°W
Report Text: EGXU 211150Z AUTO 22016KT 9999 // FEW009/// BKN046/// 09/09 Q1017
Loading
Personal Weather Stations






























Interactive Weather Map New forecast layout! Learn more

10-Day Weather Forecast

Advertisements
Track Severe Weather on mobile